Time;durP1;ratioP1;P1;durP2;ratioP2;P2;SDS_P1;SDS_P2;PMS_P1;PMS_P2;Temp;Humidity;BMP_temperature;BMP_pressure;BME280_temperature;BME280_humidity;BME280_pressure;Samples;Min_cycle;Max_cycle;Signal;HPM_P1;HPM_P2
2023/11/09 00:01:49;;;;;;;3.40;2.00;;;;;;;;;;4891630;29;20186;-87
2023/11/09 00:04:53;;;;;;;2.47;1.97;;;;;;;;;;4902098;29;20639;-87
2023/11/09 00:07:57;;;;;;;4.07;2.40;;;;;;;;;;4891057;29;20189;-87
2023/11/09 00:11:02;;;;;;;2.67;2.07;;;;;;;;;;4891496;29;20228;-87
2023/11/09 00:14:14;;;;;;;5.50;2.20;;;;;;;;;;4902762;29;20194;-87
2023/11/09 00:17:20;;;;;;;2.40;2.00;;;;;;;;;;4891831;29;20185;-87
2023/11/09 00:20:26;;;;;;;2.63;1.87;;;;;;;;;;4919811;29;20225;-85
2023/11/09 00:23:31;;;;;;;5.80;2.00;;;;;;;;;;4918165;29;20186;-86
2023/11/09 00:26:35;;;;;;;3.33;1.87;;;;;;;;;;4893220;29;20186;-86
2023/11/09 00:29:40;;;;;;;2.53;2.07;;;;;;;;;;4903898;29;20221;-85
2023/11/09 00:32:44;;;;;;;3.27;2.10;;;;;;;;;;4892924;29;20214;-87
2023/11/09 00:35:49;;;;;;;3.23;2.00;;;;;;;;;;4902353;29;20194;-87
2023/11/09 00:38:53;;;;;;;3.20;2.10;;;;;;;;;;4913732;29;20194;-87
2023/11/09 00:41:58;;;;;;;5.33;2.37;;;;;;;;;;4902734;29;20182;-87
2023/11/09 00:45:01;;;;;;;5.53;2.03;;;;;;;;;;4892115;29;20194;-87
2023/11/09 00:48:06;;;;;;;3.10;1.90;;;;;;;;;;4882828;29;20189;-86
2023/11/09 00:51:10;;;;;;;2.53;1.97;;;;;;;;;;4900698;29;20236;-86
2023/11/09 00:54:14;;;;;;;3.77;1.93;;;;;;;;;;4890292;29;20194;-86
2023/11/09 00:57:20;;;;;;;3.10;1.90;;;;;;;;;;4894577;29;20635;-86
2023/11/09 01:00:24;;;;;;;2.70;1.90;;;;;;;;;;4906366;29;20229;-86
2023/11/09 01:03:29;;;;;;;6.83;2.13;;;;;;;;;;4906169;29;20186;-86
2023/11/09 01:06:33;;;;;;;2.30;1.90;;;;;;;;;;4905958;29;20190;-85
2023/11/09 01:09:40;;;;;;;3.23;2.17;;;;;;;;;;4894103;29;20224;-87
2023/11/09 01:12:44;;;;;;;4.60;2.17;;;;;;;;;;4890012;29;20213;-87
2023/11/09 01:15:48;;;;;;;5.33;2.27;;;;;;;;;;4901561;29;20197;-87
2023/11/09 01:18:52;;;;;;;3.40;2.20;;;;;;;;;;4914884;29;20531;-86
2023/11/09 01:21:57;;;;;;;3.70;2.10;;;;;;;;;;4902937;29;20186;-87
2023/11/09 01:25:01;;;;;;;2.80;2.03;;;;;;;;;;4903349;29;20202;-87
2023/11/09 01:28:05;;;;;;;5.63;2.03;;;;;;;;;;4902667;29;20185;-87
2023/11/09 01:31:10;;;;;;;4.70;2.03;;;;;;;;;;4889961;29;20225;-86
2023/11/09 01:34:14;;;;;;;3.50;2.10;;;;;;;;;;4900862;29;20198;-86
2023/11/09 01:37:18;;;;;;;2.80;2.00;;;;;;;;;;4900860;29;20193;-87
2023/11/09 01:40:26;;;;;;;3.30;2.27;;;;;;;;;;4901086;29;20225;-87
2023/11/09 01:43:32;;;;;;;4.33;2.13;;;;;;;;;;4912714;29;20190;-87
2023/11/09 01:46:40;;;;;;;4.23;2.00;;;;;;;;;;4903104;29;20189;-86
2023/11/09 01:49:44;;;;;;;5.83;1.90;;;;;;;;;;4880422;29;20233;-87
2023/11/09 01:52:48;;;;;;;2.37;2.00;;;;;;;;;;4901992;29;20217;-87
2023/11/09 01:55:54;;;;;;;2.83;2.10;;;;;;;;;;4901652;29;20198;-86
2023/11/09 01:58:59;;;;;;;2.73;1.90;;;;;;;;;;4900917;29;20643;-86
2023/11/09 02:02:03;;;;;;;4.20;1.90;;;;;;;;;;4901630;29;20551;-86
2023/11/09 02:05:09;;;;;;;5.20;2.07;;;;;;;;;;4891004;29;20189;-86
2023/11/09 02:08:14;;;;;;;2.50;2.10;;;;;;;;;;4901324;29;21103;-85
2023/11/09 02:11:17;;;;;;;1.97;1.77;;;;;;;;;;4900389;29;20626;-87
2023/11/09 02:14:22;;;;;;;2.77;2.10;;;;;;;;;;4911661;29;20577;-86
2023/11/09 02:17:26;;;;;;;3.60;1.90;;;;;;;;;;4889942;29;20550;-86
2023/11/09 02:20:30;;;;;;;2.60;1.93;;;;;;;;;;4890204;29;20629;-86
2023/11/09 02:23:35;;;;;;;2.83;1.90;;;;;;;;;;4911478;29;20550;-87
2023/11/09 02:26:40;;;;;;;2.27;2.00;;;;;;;;;;4912440;29;20547;-87
2023/11/09 02:29:45;;;;;;;3.53;2.30;;;;;;;;;;4901607;29;20626;-86
2023/11/09 02:32:49;;;;;;;3.13;1.87;;;;;;;;;;4901756;29;20213;-86
2023/11/09 02:35:53;;;;;;;3.83;2.00;;;;;;;;;;4890206;29;20554;-87
2023/11/09 02:38:57;;;;;;;2.57;2.00;;;;;;;;;;4900740;29;20547;-85
2023/11/09 02:42:02;;;;;;;4.77;2.50;;;;;;;;;;4890506;29;20550;-86
2023/11/09 02:45:06;;;;;;;3.40;2.40;;;;;;;;;;4900804;29;21083;-86
2023/11/09 02:48:11;;;;;;;3.43;2.33;;;;;;;;;;4900919;29;20547;-86
2023/11/09 08:22:12;;;;;;;2.03;1.40;;;;;;;;;;4868912;29;20187;-88
2023/11/09 08:25:19;;;;;;;2.60;1.23;;;;;;;;;;4852356;29;20183;-87
2023/11/09 08:28:24;;;;;;;2.10;1.43;;;;;;;;;;4841678;29;20648;-88
2023/11/09 08:31:30;;;;;;;2.53;1.77;;;;;;;;;;4841470;29;20218;-87
2023/11/09 08:34:34;;;;;;;26.33;14.23;;;;;;;;;;4830875;29;20215;-87
2023/11/09 08:37:39;;;;;;;4.33;3.00;;;;;;;;;;4841328;29;20195;-88
2023/11/09 08:40:48;;;;;;;8.57;4.90;;;;;;;;;;4841356;29;20226;-87
2023/11/09 08:43:52;;;;;;;10.17;7.07;;;;;;;;;;4841200;29;20187;-87
2023/11/09 08:46:56;;;;;;;5.60;5.10;;;;;;;;;;4841236;29;20187;-88
2023/11/09 08:50:01;;;;;;;5.23;3.17;;;;;;;;;;4841260;29;20210;-88
2023/11/09 08:53:07;;;;;;;10.10;3.90;;;;;;;;;;4842770;29;20187;-82
2023/11/09 08:56:11;;;;;;;4.90;3.13;;;;;;;;;;4864672;29;20195;-82
2023/11/09 08:59:15;;;;;;;4.37;3.10;;;;;;;;;;4864291;29;20530;-81
2023/11/09 09:02:19;;;;;;;2.93;2.50;;;;;;;;;;4864697;29;20195;-82
2023/11/09 09:05:28;;;;;;;3.50;2.47;;;;;;;;;;4864404;29;20191;-81
2023/11/09 09:08:33;;;;;;;4.20;2.70;;;;;;;;;;4864213;29;20637;-82
2023/11/09 09:11:39;;;;;;;3.67;2.33;;;;;;;;;;4863912;29;20235;-82
2023/11/09 09:14:45;;;;;;;2.77;2.00;;;;;;;;;;4864635;29;20215;-82
2023/11/09 09:17:50;;;;;;;4.87;1.77;;;;;;;;;;4853059;29;20195;-82
2023/11/09 09:21:29;;;;;;;5.67;1.87;;;;;;;;;;4878022;23;20243;-82
2023/11/09 09:26:07;;;;;;;2.90;1.67;;;;;;;;;;4864371;29;20191;-82
2023/11/09 09:29:46;;;;;;;13.47;8.30;;;;;;;;;;4864364;29;20187;-80
2023/11/09 09:32:52;;;;;;;7.93;3.30;;;;;;;;;;4852452;29;20187;-80
2023/11/09 09:35:57;;;;;;;3.30;2.40;;;;;;;;;;4863749;29;20176;-80
2023/11/09 09:39:02;;;;;;;4.43;3.57;;;;;;;;;;4864140;29;20191;-85
2023/11/09 09:42:08;;;;;;;4.33;1.93;;;;;;;;;;4864644;29;20199;-85
2023/11/09 09:45:30;;;;;;;2.20;1.27;;;;;;;;;;4842967;29;20531;-85
2023/11/09 09:48:35;;;;;;;3.23;1.23;;;;;;;;;;4853300;29;20187;-85
2023/11/09 09:51:40;;;;;;;1.73;1.33;;;;;;;;;;4853431;29;20697;-85
2023/11/09 09:54:44;;;;;;;2.10;1.40;;;;;;;;;;4842157;29;20214;-85
2023/11/09 09:57:48;;;;;;;2.10;1.37;;;;;;;;;;4842626;29;20645;-85
2023/11/09 10:00:57;;;;;;;3.27;2.73;;;;;;;;;;4864634;29;20227;-85
2023/11/09 10:04:03;;;;;;;3.80;3.50;;;;;;;;;;4853607;29;20191;-86
2023/11/09 10:07:07;;;;;;;3.50;3.20;;;;;;;;;;4864993;29;20186;-85
2023/11/09 10:10:13;;;;;;;1.80;1.30;;;;;;;;;;4842623;29;20226;-85
2023/11/09 10:13:23;;;;;;;3.03;1.83;;;;;;;;;;4853777;29;20195;-85
2023/11/09 10:16:32;;;;;;;2.43;1.90;;;;;;;;;;4853719;29;20183;-85
2023/11/09 10:19:42;;;;;;;3.20;1.53;;;;;;;;;;4864367;29;20533;-85
2023/11/09 10:22:51;;;;;;;1.83;1.30;;;;;;;;;;4842703;29;20187;-85
2023/11/09 10:25:56;;;;;;;3.20;1.70;;;;;;;;;;4852462;29;20179;-85
2023/11/09 10:29:02;;;;;;;3.27;1.63;;;;;;;;;;4851705;29;20195;-85
2023/11/09 10:32:19;;;;;;;2.83;1.37;;;;;;;;;;4851201;29;20191;-86
2023/11/09 10:35:25;;;;;;;6.23;2.30;;;;;;;;;;4852962;29;20558;-86
2023/11/09 10:38:32;;;;;;;10.60;6.83;;;;;;;;;;4852255;29;20186;-86
2023/11/09 10:41:37;;;;;;;7.80;4.40;;;;;;;;;;4852069;29;20231;-85
2023/11/09 10:44:44;;;;;;;2.70;1.90;;;;;;;;;;4841537;29;20191;-86
2023/11/09 10:47:52;;;;;;;3.67;2.33;;;;;;;;;;4852340;29;20199;-86
2023/11/09 10:50:56;;;;;;;1.53;1.43;;;;;;;;;;4862769;29;20226;-85
2023/11/09 10:54:02;;;;;;;2.10;1.40;;;;;;;;;;4852709;29;20190;-86
2023/11/09 10:57:09;;;;;;;8.70;6.73;;;;;;;;;;4851936;29;20637;-85
2023/11/09 11:00:26;;;;;;;12.77;8.20;;;;;;;;;;4852379;29;20230;-85
2023/11/09 11:03:39;;;;;;;8.63;6.93;;;;;;;;;;4864071;29;20184;-83
2023/11/09 11:06:51;;;;;;;3.73;3.33;;;;;;;;;;4855695;29;20182;-83
2023/11/09 11:09:56;;;;;;;3.87;2.63;;;;;;;;;;4866355;29;20238;-84
2023/11/09 11:13:09;;;;;;;7.23;5.40;;;;;;;;;;4866903;29;20186;-83
2023/11/09 11:16:16;;;;;;;2.47;2.07;;;;;;;;;;4854339;29;20219;-84
2023/11/09 11:19:24;;;;;;;3.10;1.33;;;;;;;;;;4854395;29;20190;-84
2023/11/09 11:22:54;;;;;;;1.63;1.30;;;;;;;;;;4854556;29;20561;-84
2023/11/09 11:26:10;;;;;;;3.90;2.90;;;;;;;;;;4855117;29;20183;-84
2023/11/09 11:29:15;;;;;;;1.83;1.03;;;;;;;;;;4853996;29;20195;-85
2023/11/09 11:32:24;;;;;;;2.27;1.60;;;;;;;;;;4853491;29;20187;-84
2023/11/09 11:35:43;;;;;;;1.67;1.10;;;;;;;;;;4841484;29;20564;-86
2023/11/09 11:39:07;;;;;;;2.80;1.30;;;;;;;;;;4853468;29;20657;-85
2023/11/09 11:42:16;;;;;;;2.93;1.20;;;;;;;;;;4865853;29;20187;-83
2023/11/09 11:45:21;;;;;;;4.63;1.53;;;;;;;;;;4858423;29;20187;-84
2023/11/09 11:48:27;;;;;;;3.27;0.97;;;;;;;;;;4869934;29;20195;-84
2023/11/09 11:51:31;;;;;;;2.30;1.00;;;;;;;;;;4870279;29;20223;-84
2023/11/09 11:54:36;;;;;;;1.73;1.50;;;;;;;;;;4858216;29;20566;-84
2023/11/09 11:58:04;;;;;;;2.43;1.20;;;;;;;;;;4848286;29;20187;-84
2023/11/09 12:01:19;;;;;;;4.23;2.40;;;;;;;;;;4847445;29;20223;-84
2023/11/09 12:04:23;;;;;;;4.13;2.80;;;;;;;;;;4858908;29;20187;-84
2023/11/09 12:07:30;;;;;;;7.37;5.27;;;;;;;;;;4858376;29;20190;-84
2023/11/09 12:10:39;;;;;;;4.03;1.60;;;;;;;;;;4869451;29;20231;-84
2023/11/09 12:13:45;;;;;;;4.73;1.90;;;;;;;;;;4858722;29;20649;-84
2023/11/09 12:16:49;;;;;;;4.97;1.70;;;;;;;;;;4869764;29;20653;-84
2023/11/09 12:19:54;;;;;;;2.40;1.60;;;;;;;;;;4858559;29;20230;-84
2023/11/09 12:23:05;;;;;;;3.60;2.23;;;;;;;;;;4847767;29;20187;-84
2023/11/09 12:26:09;;;;;;;2.13;1.23;;;;;;;;;;4847780;29;20187;-84
2023/11/09 12:29:15;;;;;;;2.77;1.23;;;;;;;;;;4847172;29;20538;-84
2023/11/09 12:32:20;;;;;;;4.57;1.40;;;;;;;;;;4847685;29;20195;-84
2023/11/09 12:35:24;;;;;;;2.63;1.10;;;;;;;;;;4857314;29;20708;-84
2023/11/09 12:38:31;;;;;;;1.17;1.00;;;;;;;;;;4858048;29;20546;-84
2023/11/09 12:41:39;;;;;;;8.23;1.30;;;;;;;;;;4856916;29;20222;-84
2023/11/09 12:44:43;;;;;;;1.73;1.40;;;;;;;;;;4869468;29;20186;-86
2023/11/09 12:47:47;;;;;;;3.87;1.60;;;;;;;;;;4842591;29;20191;-86
2023/11/09 12:50:51;;;;;;;4.87;1.60;;;;;;;;;;4852195;29;20573;-86
2023/11/09 12:53:55;;;;;;;3.63;2.00;;;;;;;;;;4841040;29;20198;-86
2023/11/09 12:57:04;;;;;;;3.60;1.93;;;;;;;;;;4841927;29;20645;-86
2023/11/09 13:00:29;;;;;;;3.43;1.40;;;;;;;;;;4852900;29;20223;-85
2023/11/09 13:03:34;;;;;;;5.53;3.43;;;;;;;;;;4863767;29;20187;-86
2023/11/09 13:06:40;;;;;;;8.00;2.60;;;;;;;;;;4863636;29;20195;-86
2023/11/09 13:09:46;;;;;;;7.03;3.10;;;;;;;;;;4852181;29;20195;-86
2023/11/09 13:12:51;;;;;;;1.57;1.30;;;;;;;;;;4852628;29;20191;-85
2023/11/09 13:15:57;;;;;;;1.70;1.23;;;;;;;;;;4852059;29;20214;-86
2023/11/09 13:19:04;;;;;;;2.20;1.27;;;;;;;;;;4852478;29;20191;-86
2023/11/09 13:22:08;;;;;;;2.67;1.30;;;;;;;;;;4851527;29;20565;-86
2023/11/09 13:25:22;;;;;;;2.17;1.20;;;;;;;;;;4841580;29;20191;-86
2023/11/09 13:28:28;;;;;;;2.47;1.20;;;;;;;;;;4841322;29;20534;-86
2023/11/09 13:31:34;;;;;;;3.83;1.20;;;;;;;;;;4841723;29;20230;-85
2023/11/09 13:34:47;;;;;;;2.23;1.10;;;;;;;;;;4841347;29;20191;-86
2023/11/09 13:37:58;;;;;;;3.47;1.50;;;;;;;;;;4841180;29;20187;-86
2023/11/09 13:44:24;;;;;;;2.87;1.00;;;;;;;;;;4852038;29;20191;-86
2023/11/09 13:47:29;;;;;;;1.87;1.20;;;;;;;;;;4852823;29;20187;-86
2023/11/09 13:50:36;;;;;;;2.10;1.10;;;;;;;;;;4851934;29;20578;-86
2023/11/09 13:53:46;;;;;;;3.37;1.30;;;;;;;;;;4841590;29;20191;-86
2023/11/09 14:00:11;;;;;;;3.23;1.07;;;;;;;;;;4851643;29;20574;-86
2023/11/09 14:03:15;;;;;;;3.60;1.30;;;;;;;;;;4851349;29;20191;-85
2023/11/09 14:06:21;;;;;;;1.60;1.27;;;;;;;;;;4851407;29;20187;-86
2023/11/09 14:09:34;;;;;;;1.93;1.20;;;;;;;;;;4853698;29;20190;-85
2023/11/09 14:15:53;;;;;;;2.67;1.33;;;;;;;;;;4866366;29;20562;-85
2023/11/09 14:19:01;;;;;;;2.60;1.30;;;;;;;;;;4865650;29;20183;-85
2023/11/09 14:22:05;;;;;;;2.90;1.10;;;;;;;;;;4854495;29;20218;-85
2023/11/09 14:25:14;;;;;;;3.83;1.40;;;;;;;;;;4866998;29;20187;-85
2023/11/09 14:28:21;;;;;;;3.90;1.27;;;;;;;;;;4854569;29;20191;-85
2023/11/09 14:31:25;;;;;;;4.80;1.30;;;;;;;;;;4854584;29;20230;-85
2023/11/09 14:34:30;;;;;;;2.43;1.60;;;;;;;;;;4866467;29;20190;-85
2023/11/09 14:37:36;;;;;;;2.77;1.40;;;;;;;;;;4844062;29;20183;-85
2023/11/09 14:40:44;;;;;;;8.10;1.40;;;;;;;;;;4854634;29;20222;-85
2023/11/09 14:43:50;;;;;;;3.63;1.30;;;;;;;;;;4844375;29;20191;-85
2023/11/09 14:46:55;;;;;;;2.03;1.23;;;;;;;;;;4854051;29;20523;-85
2023/11/09 14:50:03;;;;;;;1.53;1.23;;;;;;;;;;4866040;29;20226;-84
2023/11/09 14:56:13;;;;;;;1.47;1.20;;;;;;;;;;4843963;29;20672;-84
2023/11/09 14:59:20;;;;;;;3.87;1.50;;;;;;;;;;4856361;29;20194;-84
2023/11/09 15:02:24;;;;;;;4.53;1.13;;;;;;;;;;4855982;29;20187;-84
2023/11/09 15:05:30;;;;;;;1.90;1.03;;;;;;;;;;4868462;29;20513;-84
2023/11/09 15:08:37;;;;;;;2.13;1.50;;;;;;;;;;4868925;29;20641;-84
2023/11/09 15:11:41;;;;;;;2.40;1.53;;;;;;;;;;4845596;29;20226;-84
2023/11/09 15:14:46;;;;;;;3.17;1.30;;;;;;;;;;4855071;29;20203;-85
2023/11/09 15:17:50;;;;;;;4.60;1.43;;;;;;;;;;4845522;29;20188;-84
2023/11/09 15:20:54;;;;;;;2.40;1.13;;;;;;;;;;4857199;29;20238;-82
2023/11/09 15:24:03;;;;;;;1.77;1.30;;;;;;;;;;4845891;29;20191;-85
2023/11/09 15:27:08;;;;;;;2.03;1.20;;;;;;;;;;4857467;29;20187;-85
2023/11/09 15:30:12;;;;;;;1.63;0.90;;;;;;;;;;4856130;29;20230;-85
2023/11/09 15:33:16;;;;;;;4.07;1.50;;;;;;;;;;4857060;29;20194;-83
2023/11/09 15:36:20;;;;;;;3.57;1.13;;;;;;;;;;4868376;29;20219;-85
2023/11/09 15:39:25;;;;;;;4.23;1.00;;;;;;;;;;4869502;29;20190;-84
2023/11/09 15:42:29;;;;;;;2.33;1.10;;;;;;;;;;4846928;29;20195;-82
2023/11/09 15:45:34;;;;;;;3.43;1.27;;;;;;;;;;4871942;29;20518;-83
2023/11/09 15:48:45;;;;;;;4.63;1.27;;;;;;;;;;4871906;29;20195;-82
2023/11/09 15:51:49;;;;;;;2.43;1.20;;;;;;;;;;4860095;29;20219;-84
2023/11/09 15:54:53;;;;;;;1.20;1.00;;;;;;;;;;4859927;29;20191;-85
2023/11/09 15:58:02;;;;;;;7.30;2.00;;;;;;;;;;4847778;29;20179;-85
2023/11/09 16:01:09;;;;;;;1.83;1.50;;;;;;;;;;4848162;29;20235;-85
2023/11/09 16:04:13;;;;;;;2.33;1.60;;;;;;;;;;4859241;29;20191;-84
2023/11/09 16:07:21;;;;;;;3.10;1.93;;;;;;;;;;4859905;29;20183;-84
2023/11/09 16:10:26;;;;;;;3.60;2.00;;;;;;;;;;4856419;29;20234;-84
2023/11/09 16:13:30;;;;;;;6.37;2.23;;;;;;;;;;4848364;29;20537;-85
2023/11/09 16:16:34;;;;;;;2.57;1.60;;;;;;;;;;4859802;29;20219;-86
2023/11/09 16:19:41;;;;;;;2.73;2.03;;;;;;;;;;4851749;29;20187;-82
2023/11/09 16:22:45;;;;;;;2.93;2.10;;;;;;;;;;4872886;29;20187;-82
2023/11/09 16:25:49;;;;;;;2.97;1.63;;;;;;;;;;4872601;29;20187;-82
2023/11/09 16:29:00;;;;;;;3.60;1.37;;;;;;;;;;4848072;29;20194;-82
2023/11/09 16:32:05;;;;;;;2.90;1.40;;;;;;;;;;4861468;29;20191;-82
2023/11/09 16:35:09;;;;;;;4.80;1.30;;;;;;;;;;4871594;29;20199;-85
2023/11/09 16:38:14;;;;;;;2.27;1.30;;;;;;;;;;4857237;29;20179;-86
2023/11/09 16:41:18;;;;;;;2.07;1.37;;;;;;;;;;4869468;29;20231;-86
2023/11/09 16:44:24;;;;;;;2.10;1.13;;;;;;;;;;4847298;29;20191;-85
2023/11/09 16:47:28;;;;;;;1.43;1.20;;;;;;;;;;4858276;29;20183;-86
2023/11/09 16:50:32;;;;;;;2.73;1.50;;;;;;;;;;4854786;29;20222;-85
2023/11/09 16:53:39;;;;;;;1.83;1.33;;;;;;;;;;4854359;29;20191;-86
2023/11/09 16:56:43;;;;;;;2.10;1.40;;;;;;;;;;4854343;29;20218;-85
2023/11/09 16:59:50;;;;;;;4.03;1.50;;;;;;;;;;4844496;29;20195;-85
2023/11/09 17:02:53;;;;;;;4.33;2.10;;;;;;;;;;4857176;29;20191;-85
2023/11/09 17:05:57;;;;;;;2.83;1.70;;;;;;;;;;4848160;29;20191;-84
2023/11/09 17:09:03;;;;;;;2.40;1.60;;;;;;;;;;4845232;29;20187;-84
2023/11/09 17:12:08;;;;;;;3.60;1.27;;;;;;;;;;4858710;29;20190;-85
2023/11/09 17:15:13;;;;;;;4.17;1.40;;;;;;;;;;4846253;29;20194;-85
2023/11/09 17:18:16;;;;;;;28.50;15.67;;;;;;;;;;4855800;29;20183;-85
2023/11/09 17:21:22;;;;;;;27.73;13.30;;;;;;;;;;4854922;29;20234;-85
2023/11/09 17:24:27;;;;;;;9.37;4.53;;;;;;;;;;4856826;29;20210;-84
2023/11/09 17:27:31;;;;;;;7.87;4.47;;;;;;;;;;4857332;29;20191;-85
2023/11/09 17:30:37;;;;;;;5.50;2.53;;;;;;;;;;4856894;29;20309;-84
2023/11/09 17:33:41;;;;;;;2.70;1.90;;;;;;;;;;4856823;29;20191;-83
2023/11/09 17:36:46;;;;;;;3.03;1.97;;;;;;;;;;4856666;29;20219;-85
2023/11/09 17:39:50;;;;;;;2.30;1.60;;;;;;;;;;4846527;29;20226;-85
2023/11/09 17:42:55;;;;;;;3.07;1.70;;;;;;;;;;4845566;29;20210;-84
2023/11/09 17:46:01;;;;;;;2.03;1.43;;;;;;;;;;4856670;29;20199;-85
2023/11/09 17:49:08;;;;;;;3.73;1.47;;;;;;;;;;4857455;29;20187;-83
2023/11/09 17:52:12;;;;;;;1.23;1.13;;;;;;;;;;4870378;29;20195;-84
2023/11/09 17:55:19;;;;;;;2.33;1.43;;;;;;;;;;4861521;29;20195;-84
2023/11/09 17:58:23;;;;;;;1.53;1.20;;;;;;;;;;4860447;29;20179;-84
2023/11/09 18:01:29;;;;;;;4.10;1.57;;;;;;;;;;4871879;29;20230;-84
2023/11/09 18:04:36;;;;;;;8.47;2.37;;;;;;;;;;4860712;29;20191;-83
2023/11/09 18:07:40;;;;;;;6.30;2.00;;;;;;;;;;4848693;29;20187;-85
2023/11/09 18:10:44;;;;;;;4.83;2.77;;;;;;;;;;4846155;29;20226;-85
2023/11/09 18:13:48;;;;;;;3.03;1.80;;;;;;;;;;4856432;29;20191;-85
2023/11/09 18:16:53;;;;;;;3.50;2.07;;;;;;;;;;4859794;29;20219;-84
2023/11/09 18:19:57;;;;;;;2.23;1.90;;;;;;;;;;4859548;29;20235;-83
2023/11/09 18:23:02;;;;;;;2.33;1.67;;;;;;;;;;4861138;29;20187;-84
2023/11/09 18:26:09;;;;;;;2.20;1.93;;;;;;;;;;4861430;29;20191;-84
2023/11/09 18:29:13;;;;;;;6.30;4.23;;;;;;;;;;4861437;29;20191;-84
2023/11/09 18:32:18;;;;;;;4.43;3.23;;;;;;;;;;4871424;29;20203;-84
2023/11/09 18:35:22;;;;;;;2.47;2.07;;;;;;;;;;4856616;29;20195;-84
2023/11/09 18:38:27;;;;;;;3.00;1.37;;;;;;;;;;4858308;29;20226;-85
2023/11/09 18:41:31;;;;;;;3.40;1.90;;;;;;;;;;4857424;29;20227;-85
2023/11/09 18:44:35;;;;;;;2.37;2.00;;;;;;;;;;4848332;29;20191;-85
2023/11/09 18:47:40;;;;;;;4.10;2.23;;;;;;;;;;4856833;29;20191;-85
2023/11/09 18:50:45;;;;;;;2.50;2.03;;;;;;;;;;4857933;29;20223;-85
2023/11/09 18:53:49;;;;;;;2.10;1.90;;;;;;;;;;4862405;29;20186;-85
2023/11/09 18:56:53;;;;;;;2.37;1.90;;;;;;;;;;4850771;29;20222;-85
2023/11/09 18:59:58;;;;;;;2.67;2.00;;;;;;;;;;4860860;29;20234;-85
2023/11/09 19:03:02;;;;;;;3.93;2.50;;;;;;;;;;4861259;29;20195;-85
2023/11/09 19:06:06;;;;;;;2.80;2.13;;;;;;;;;;4848238;29;20641;-85
2023/11/09 19:09:11;;;;;;;3.00;1.90;;;;;;;;;;4848826;29;20187;-85
2023/11/09 19:12:17;;;;;;;2.23;1.80;;;;;;;;;;4859606;29;20191;-85
2023/11/09 19:15:23;;;;;;;5.37;2.07;;;;;;;;;;4861182;29;20190;-85
2023/11/09 19:18:29;;;;;;;5.43;2.70;;;;;;;;;;4852272;29;20222;-85
2023/11/09 19:21:33;;;;;;;3.17;2.03;;;;;;;;;;4861735;29;20238;-85
2023/11/09 19:24:37;;;;;;;2.90;2.07;;;;;;;;;;4872124;29;20198;-85
2023/11/09 19:27:43;;;;;;;4.90;2.43;;;;;;;;;;4861444;29;20190;-85
2023/11/09 19:30:47;;;;;;;2.33;2.00;;;;;;;;;;4851340;29;20226;-85
2023/11/09 19:33:51;;;;;;;2.03;1.70;;;;;;;;;;4860597;29;20187;-84
2023/11/09 19:36:55;;;;;;;2.70;2.00;;;;;;;;;;4850722;29;20218;-84
2023/11/09 19:39:59;;;;;;;3.07;2.03;;;;;;;;;;4860646;29;20226;-84
2023/11/09 19:43:04;;;;;;;3.40;2.20;;;;;;;;;;4873950;29;20195;-84
2023/11/09 19:46:08;;;;;;;5.10;2.00;;;;;;;;;;4862134;29;20199;-84
2023/11/09 19:49:13;;;;;;;5.43;2.40;;;;;;;;;;4874811;29;20187;-85
2023/11/09 19:52:17;;;;;;;4.73;2.50;;;;;;;;;;4854549;29;20195;-85
2023/11/09 19:55:22;;;;;;;2.83;2.20;;;;;;;;;;4852999;29;20195;-85
2023/11/09 19:58:26;;;;;;;2.23;2.00;;;;;;;;;;4871295;29;20222;-85
2023/11/09 20:01:32;;;;;;;3.60;2.40;;;;;;;;;;4849548;29;20230;-85
2023/11/09 20:04:36;;;;;;;3.60;2.40;;;;;;;;;;4857907;29;20187;-85
2023/11/09 20:07:41;;;;;;;2.90;2.40;;;;;;;;;;4859510;29;20191;-85
2023/11/09 20:10:47;;;;;;;4.83;2.57;;;;;;;;;;4869604;29;20234;-85
2023/11/09 20:13:51;;;;;;;2.90;2.07;;;;;;;;;;4858765;29;20195;-86
2023/11/09 20:16:55;;;;;;;3.00;1.90;;;;;;;;;;4871348;29;20561;-84
2023/11/09 20:20:01;;;;;;;5.37;2.23;;;;;;;;;;4859728;29;20704;-84
2023/11/09 20:23:07;;;;;;;3.27;1.70;;;;;;;;;;4861411;29;20192;-84
2023/11/09 20:26:16;;;;;;;2.93;1.90;;;;;;;;;;4861782;29;20187;-85
2023/11/09 20:29:20;;;;;;;2.13;1.77;;;;;;;;;;4861275;29;20191;-84
2023/11/09 20:32:25;;;;;;;3.40;2.10;;;;;;;;;;4851090;29;20191;-84
2023/11/09 20:35:29;;;;;;;3.23;2.27;;;;;;;;;;4861475;29;20199;-84
2023/11/09 20:38:33;;;;;;;3.53;2.10;;;;;;;;;;4860127;29;20223;-84
2023/11/09 20:41:39;;;;;;;4.10;2.20;;;;;;;;;;4851231;29;20230;-84
2023/11/09 20:44:43;;;;;;;2.73;2.13;;;;;;;;;;4861104;29;20191;-84
2023/11/09 20:47:49;;;;;;;4.17;2.00;;;;;;;;;;4861064;29;20183;-85
2023/11/09 20:50:56;;;;;;;2.00;1.80;;;;;;;;;;4860392;29;20227;-84
2023/11/09 20:54:00;;;;;;;2.23;1.70;;;;;;;;;;4873907;29;20187;-84
2023/11/09 20:57:04;;;;;;;2.13;1.73;;;;;;;;;;4872459;29;20195;-84
2023/11/09 21:00:09;;;;;;;2.80;1.80;;;;;;;;;;4861285;29;20227;-84
2023/11/09 21:03:13;;;;;;;2.03;1.83;;;;;;;;;;4872629;29;20195;-84
2023/11/09 21:06:18;;;;;;;2.93;2.27;;;;;;;;;;4860760;29;20187;-84
2023/11/09 21:09:28;;;;;;;2.77;2.13;;;;;;;;;;4873181;29;20188;-84
2023/11/09 21:12:32;;;;;;;2.50;2.00;;;;;;;;;;4850009;29;20183;-84
2023/11/09 21:15:36;;;;;;;2.83;2.17;;;;;;;;;;4858587;29;20191;-84
2023/11/09 21:18:41;;;;;;;4.00;2.27;;;;;;;;;;4871825;29;20219;-84
2023/11/09 21:21:45;;;;;;;2.17;1.97;;;;;;;;;;4858676;29;20243;-84
2023/11/09 21:24:51;;;;;;;2.03;1.80;;;;;;;;;;4859421;29;20198;-84
2023/11/09 21:27:57;;;;;;;2.33;2.03;;;;;;;;;;4858203;29;20187;-84
2023/11/09 21:31:04;;;;;;;1.80;1.63;;;;;;;;;;4870318;29;20226;-84
2023/11/09 21:34:08;;;;;;;2.60;1.70;;;;;;;;;;4858996;29;20195;-84
2023/11/09 21:37:13;;;;;;;2.03;1.80;;;;;;;;;;4856110;29;20191;-84
2023/11/09 21:40:19;;;;;;;3.67;2.00;;;;;;;;;;4856566;29;20235;-84
2023/11/09 21:43:23;;;;;;;2.40;1.73;;;;;;;;;;4845195;29;20191;-84
2023/11/09 21:46:27;;;;;;;2.70;1.90;;;;;;;;;;4846884;29;20187;-85
2023/11/09 21:49:32;;;;;;;1.90;1.70;;;;;;;;;;4857256;29;20183;-84
2023/11/09 21:52:37;;;;;;;1.63;1.53;;;;;;;;;;4857843;29;20191;-84
2023/11/09 21:55:45;;;;;;;2.40;1.63;;;;;;;;;;4847513;29;20191;-85
2023/11/09 21:58:50;;;;;;;1.67;1.57;;;;;;;;;;4849049;29;20218;-84
2023/11/09 22:01:54;;;;;;;3.43;1.80;;;;;;;;;;4848046;29;20215;-84
2023/11/09 22:04:58;;;;;;;3.10;1.90;;;;;;;;;;4858109;29;20637;-84
2023/11/09 22:08:04;;;;;;;2.20;1.80;;;;;;;;;;4848698;29;20190;-84
2023/11/09 22:11:09;;;;;;;1.87;1.73;;;;;;;;;;4871886;29;20222;-84
2023/11/09 22:14:15;;;;;;;2.83;1.63;;;;;;;;;;4860086;29;20190;-85
2023/11/09 22:17:21;;;;;;;4.93;2.03;;;;;;;;;;4860276;29;20629;-83
2023/11/09 22:20:26;;;;;;;3.10;2.00;;;;;;;;;;4860552;29;20230;-84
2023/11/09 22:23:30;;;;;;;2.13;1.93;;;;;;;;;;4859718;29;20191;-85
2023/11/09 22:26:36;;;;;;;2.90;2.10;;;;;;;;;;4860427;29;20190;-84
2023/11/09 22:29:40;;;;;;;2.50;1.80;;;;;;;;;;4850330;29;20191;-85
2023/11/09 22:32:44;;;;;;;2.40;2.20;;;;;;;;;;4870145;29;20191;-84
2023/11/09 22:35:49;;;;;;;3.50;2.00;;;;;;;;;;4869416;29;20195;-85
2023/11/09 22:38:53;;;;;;;3.30;2.20;;;;;;;;;;4858889;29;20218;-84
2023/11/09 22:41:57;;;;;;;2.87;2.00;;;;;;;;;;4858001;29;20191;-84
2023/11/09 22:45:02;;;;;;;2.47;2.00;;;;;;;;;;4848570;29;20186;-84
2023/11/09 22:48:06;;;;;;;2.80;1.90;;;;;;;;;;4870052;29;20187;-85
2023/11/09 22:51:10;;;;;;;2.20;2.00;;;;;;;;;;4870084;29;20223;-85
2023/11/09 22:54:15;;;;;;;3.13;1.67;;;;;;;;;;4869388;29;20195;-85
2023/11/09 22:57:19;;;;;;;3.23;2.33;;;;;;;;;;4870104;29;20186;-84
2023/11/09 23:00:36;;;;;;;2.30;1.90;;;;;;;;;;4847125;29;20223;-85
2023/11/09 23:03:41;;;;;;;2.73;2.20;;;;;;;;;;4858319;29;20196;-84
2023/11/09 23:06:45;;;;;;;2.50;2.20;;;;;;;;;;4868780;29;20195;-84
2023/11/09 23:09:49;;;;;;;2.63;2.10;;;;;;;;;;4868861;29;20706;-84
2023/11/09 23:12:55;;;;;;;3.83;2.07;;;;;;;;;;4846983;29;20191;-84
2023/11/09 23:16:00;;;;;;;4.63;2.30;;;;;;;;;;4868841;29;20535;-83
2023/11/09 23:19:05;;;;;;;3.00;2.17;;;;;;;;;;4846730;29;20685;-84
2023/11/09 23:22:09;;;;;;;3.90;2.43;;;;;;;;;;4856881;29;20214;-84
2023/11/09 23:25:13;;;;;;;2.30;2.00;;;;;;;;;;4855541;29;20195;-84
2023/11/09 23:28:17;;;;;;;2.90;2.10;;;;;;;;;;4856504;29;20648;-84
2023/11/09 23:31:22;;;;;;;2.20;2.00;;;;;;;;;;4847597;29;20223;-84
2023/11/09 23:34:26;;;;;;;2.70;2.07;;;;;;;;;;4857398;29;20195;-85
2023/11/09 23:37:30;;;;;;;2.50;1.83;;;;;;;;;;4858611;29;20199;-84
2023/11/09 23:40:34;;;;;;;2.97;2.27;;;;;;;;;;4859653;29;20214;-84
2023/11/09 23:43:39;;;;;;;2.93;2.20;;;;;;;;;;4860126;29;20542;-84
2023/11/09 23:46:43;;;;;;;3.20;2.30;;;;;;;;;;4859920;29;20191;-84
2023/11/09 23:49:47;;;;;;;2.57;2.13;;;;;;;;;;4861793;29;20186;-84
2023/11/09 23:52:55;;;;;;;3.63;2.20;;;;;;;;;;4861081;29;20652;-84
2023/11/09 23:55:59;;;;;;;3.87;2.27;;;;;;;;;;4861891;29;20657;-84
2023/11/09 23:59:03;;;;;;;3.57;2.37;;;;;;;;;;4851556;29;20214;-84
